createdAt,value
2022-08-09T00:00:04.169Z,71.70
2022-08-09T00:02:33.953Z,71.70
2022-08-09T00:06:17.501Z,71.60
2022-08-09T00:07:52.321Z,71.70
2022-08-09T00:10:24.564Z,71.90
2022-08-09T00:12:53.475Z,72.10
2022-08-09T00:15:26.416Z,72.60
2022-08-09T00:18:12.487Z,72.70
2022-08-09T00:20:50.256Z,72.90
2022-08-09T00:23:57.465Z,73.20
2022-08-09T00:26:11.133Z,73.70
2022-08-09T00:28:40.579Z,73.70
2022-08-09T00:31:57.118Z,73.80
2022-08-09T00:33:57.838Z,73.80
2022-08-09T00:36:30.850Z,73.70
2022-08-09T00:38:59.369Z,73.90
2022-08-09T00:44:14.162Z,74.10
2022-08-09T00:44:27.308Z,74.10
2022-08-09T00:47:05.256Z,74.10
2022-08-09T00:49:34.631Z,74.30
2022-08-09T00:52:15.895Z,74.60
2022-08-09T00:54:46.106Z,74.80
2022-08-09T00:57:24.811Z,74.60
2022-08-09T01:00:22.011Z,74.60
2022-08-09T01:02:52.906Z,75.20
2022-08-09T01:05:51.018Z,75.60
2022-08-09T01:08:29.901Z,75.50
2022-08-09T01:11:09.906Z,75.40
2022-08-09T01:13:59.122Z,75.60
2022-08-09T01:16:35.127Z,75.30
2022-08-09T01:19:17.252Z,75.10
2022-08-09T01:22:16.293Z,75.10
2022-08-09T01:24:54.942Z,75.20
2022-08-09T01:27:27.536Z,75.20
2022-08-09T01:30:00.950Z,74.10
2022-08-09T01:32:33.711Z,74.40
2022-08-09T01:35:17.935Z,74.30
2022-08-09T01:38:07.804Z,74.80
2022-08-09T01:40:43.206Z,75.00
2022-08-09T01:43:13.398Z,75.20
2022-08-09T01:45:46.090Z,75.80
2022-08-09T01:48:17.305Z,76.90
2022-08-09T01:50:48.589Z,76.70
2022-08-09T01:53:23.840Z,76.70
2022-08-09T01:55:58.140Z,76.70
2022-08-09T01:58:29.762Z,77.40
2022-08-09T02:01:00.740Z,76.40
2022-08-09T02:03:32.286Z,76.40
2022-08-09T02:06:06.629Z,77.10
2022-08-09T02:08:58.833Z,76.00
2022-08-09T02:11:40.228Z,75.80
2022-08-09T02:14:25.665Z,76.10
2022-08-09T02:17:14.640Z,76.40
2022-08-09T02:19:45.361Z,76.80
2022-08-09T02:22:31.540Z,76.90
2022-08-09T02:25:06.628Z,77.00
2022-08-09T02:27:57.280Z,77.00
2022-08-09T02:30:30.459Z,77.20
2022-08-09T02:33:01.611Z,77.10
2022-08-09T02:36:03.784Z,77.30
2022-08-09T02:38:28.730Z,77.10
2022-08-09T02:41:01.978Z,77.00
2022-08-09T02:43:47.778Z,77.70
2022-08-09T02:46:25.704Z,78.20
2022-08-09T02:48:59.453Z,78.90
2022-08-09T02:51:37.022Z,79.00
2022-08-09T02:54:13.711Z,79.00
2022-08-09T02:56:51.104Z,78.50
2022-08-09T02:59:26.296Z,77.90
2022-08-09T03:02:09.736Z,77.70
2022-08-09T03:04:41.748Z,78.20
2022-08-09T03:07:14.032Z,78.70
2022-08-09T03:09:56.217Z,78.90
2022-08-09T03:12:25.661Z,79.20
2022-08-09T03:14:54.906Z,79.20
2022-08-09T03:17:27.089Z,79.80
2022-08-09T03:20:05.006Z,80.00
2022-08-09T03:22:41.329Z,80.00
2022-08-09T03:25:26.380Z,80.40
2022-08-09T03:28:02.627Z,80.80
2022-08-09T03:30:33.975Z,80.50
2022-08-09T03:33:12.808Z,80.30
2022-08-09T03:36:12.737Z,80.30
2022-08-09T03:38:37.338Z,80.40
2022-08-09T03:41:15.321Z,80.40
2022-08-09T03:43:51.859Z,80.60
2022-08-09T03:46:33.936Z,81.00
2022-08-09T03:49:08.312Z,81.60
2022-08-09T03:51:57.382Z,81.20
2022-08-09T03:54:32.384Z,81.60
2022-08-09T03:57:04.205Z,81.80
2022-08-09T03:59:53.165Z,82.30
2022-08-09T04:02:26.812Z,82.90
2022-08-09T04:04:58.725Z,83.10
2022-08-09T04:07:33.650Z,83.40
2022-08-09T04:10:18.347Z,83.60
2022-08-09T04:12:51.032Z,83.60
2022-08-09T04:15:51.886Z,83.20
2022-08-09T04:18:09.360Z,83.10
2022-08-09T04:20:46.753Z,83.20
2022-08-09T04:23:17.071Z,83.10
2022-08-09T04:25:51.610Z,83.20
2022-08-09T04:28:33.547Z,83.10
2022-08-09T04:31:09.140Z,82.30
2022-08-09T04:33:47.239Z,80.60
2022-08-09T04:36:25.011Z,78.80
2022-08-09T04:38:53.391Z,77.50
2022-08-09T04:41:23.701Z,76.70
2022-08-09T04:44:05.031Z,76.80
2022-08-09T04:46:37.580Z,77.40
2022-08-09T04:49:40.419Z,78.00
2022-08-09T04:52:18.717Z,78.60
2022-08-09T04:54:51.611Z,79.20
2022-08-09T04:57:21.523Z,79.40
2022-08-09T04:59:52.892Z,79.90
2022-08-09T05:02:20.957Z,80.00
2022-08-09T05:04:49.001Z,80.00
2022-08-09T05:07:29.247Z,80.00
2022-08-09T05:10:01.810Z,80.00
2022-08-09T05:12:33.149Z,79.90
2022-08-09T05:15:03.606Z,79.90
2022-08-09T05:18:42.044Z,79.70
2022-08-09T05:20:29.897Z,79.60
2022-08-09T05:23:54.081Z,79.20
2022-08-09T05:25:51.103Z,79.20
2022-08-09T05:28:20.261Z,79.10
2022-08-09T05:30:48.967Z,78.90
2022-08-09T05:33:26.370Z,78.90
2022-08-09T05:36:01.794Z,79.10
2022-08-09T05:38:31.710Z,78.50
2022-08-09T05:41:00.437Z,78.40
2022-08-09T05:43:32.018Z,78.10
2022-08-09T05:46:00.577Z,77.70
2022-08-09T05:48:32.916Z,77.80
2022-08-09T05:51:43.124Z,77.50
2022-08-09T05:53:57.353Z,77.40
2022-08-09T05:56:33.584Z,76.80
2022-08-09T05:59:01.754Z,76.40
2022-08-09T06:01:34.259Z,76.40
2022-08-09T06:04:11.359Z,76.60
2022-08-09T06:06:46.765Z,76.70
2022-08-09T06:09:23.214Z,76.60
2022-08-09T06:12:08.421Z,76.90
2022-08-09T06:14:37.245Z,76.90
2022-08-09T06:17:09.254Z,76.40
2022-08-09T06:19:37.901Z,76.20
2022-08-09T06:22:06.237Z,76.10
2022-08-09T06:24:44.557Z,76.20
2022-08-09T06:27:15.471Z,76.30
2022-08-09T06:29:48.137Z,76.40
2022-08-09T06:33:13.247Z,76.20
2022-08-09T06:35:15.223Z,75.70
2022-08-09T06:37:52.924Z,75.50
2022-08-09T06:40:33.406Z,75.00
2022-08-09T06:43:02.206Z,74.70
2022-08-09T06:46:06.311Z,74.00
2022-08-09T06:48:30.749Z,73.90
2022-08-09T06:51:00.272Z,73.30
2022-08-09T06:53:33.285Z,72.20
2022-08-09T06:56:09.526Z,67.10
2022-08-09T07:00:47.495Z,63.70
2022-08-09T07:01:27.585Z,61.10
2022-08-09T07:04:19.791Z,57.90
2022-08-09T07:07:00.412Z,55.80
2022-08-09T07:09:55.069Z,55.00
2022-08-09T07:12:38.103Z,54.20
2022-08-09T07:16:34.990Z,53.00
2022-08-09T07:18:02.339Z,53.10
2022-08-09T07:20:31.320Z,53.50
2022-08-09T07:22:59.673Z,52.20
2022-08-09T07:25:28.039Z,52.00
2022-08-09T07:27:58.511Z,54.20
2022-08-09T07:30:33.055Z,53.00
2022-08-09T07:33:01.192Z,51.80
2022-08-09T07:35:29.250Z,50.80
2022-08-09T07:38:07.892Z,51.20
2022-08-09T07:40:54.081Z,51.90
2022-08-09T07:43:29.118Z,52.90
2022-08-09T07:46:01.847Z,52.00
2022-08-09T07:48:31.785Z,51.50
2022-08-09T07:51:09.289Z,50.80
2022-08-09T07:54:04.916Z,51.20
2022-08-09T07:56:39.031Z,50.40
2022-08-09T07:59:25.091Z,50.20
2022-08-09T08:02:03.442Z,50.70
2022-08-09T08:04:33.389Z,50.30
2022-08-09T08:07:15.551Z,51.00
2022-08-09T08:09:54.968Z,50.00
2022-08-09T08:12:42.589Z,49.50
2022-08-09T08:15:17.195Z,50.40
2022-08-09T08:17:53.461Z,50.50
2022-08-09T08:20:30.104Z,50.10
2022-08-09T08:23:03.763Z,50.70
2022-08-09T08:25:46.679Z,50.60
2022-08-09T08:28:18.131Z,52.30
2022-08-09T08:30:55.336Z,51.60
2022-08-09T08:33:24.743Z,49.80
2022-08-09T08:36:00.240Z,50.10
2022-08-09T08:38:31.521Z,49.30
2022-08-09T08:41:01.761Z,49.80
2022-08-09T08:43:34.711Z,50.50
2022-08-09T08:46:31.769Z,49.70
2022-08-09T08:48:56.235Z,49.70
2022-08-09T08:51:27.108Z,50.00
2022-08-09T08:54:20.450Z,49.60
2022-08-09T08:56:53.305Z,48.60
2022-08-09T08:59:21.892Z,48.00
2022-08-09T09:01:59.696Z,49.10
2022-08-09T09:04:33.183Z,48.80
2022-08-09T09:07:10.975Z,48.00
2022-08-09T09:09:59.683Z,48.10
2022-08-09T09:12:34.127Z,48.70
2022-08-09T09:15:06.252Z,48.10
2022-08-09T09:17:49.169Z,47.80
2022-08-09T09:20:21.671Z,48.00
2022-08-09T09:23:01.593Z,48.00
2022-08-09T09:26:03.245Z,49.80
2022-08-09T09:29:02.470Z,50.40
2022-08-09T09:31:17.527Z,49.00
2022-08-09T09:34:15.341Z,48.20
2022-08-09T09:36:53.824Z,47.10
2022-08-09T09:39:42.600Z,46.60
2022-08-09T09:42:25.273Z,47.20
2022-08-09T09:44:58.670Z,46.80
2022-08-09T09:47:28.738Z,45.70
2022-08-09T09:50:14.675Z,44.70
2022-08-09T09:52:53.640Z,44.30
2022-08-09T09:55:28.442Z,45.60
2022-08-09T09:58:18.571Z,46.10
2022-08-09T10:00:54.823Z,46.00
2022-08-09T10:03:56.130Z,45.30
2022-08-09T10:06:27.709Z,45.50
2022-08-09T10:09:02.857Z,45.10
2022-08-09T10:12:00.841Z,44.90
2022-08-09T10:14:30.327Z,46.00
2022-08-09T10:17:40.588Z,46.40
2022-08-09T10:19:53.039Z,46.10
2022-08-09T10:22:33.386Z,45.20
2022-08-09T10:25:10.985Z,45.50
2022-08-09T10:27:45.069Z,45.90
2022-08-09T10:34:05.282Z,44.80
2022-08-09T10:36:02.410Z,43.00
2022-08-09T10:38:55.326Z,43.20
2022-08-09T10:41:21.068Z,43.60
2022-08-09T10:44:01.375Z,44.30
2022-08-09T10:46:57.187Z,44.30
2022-08-09T10:49:50.094Z,43.70
2022-08-09T10:52:30.716Z,44.90
2022-08-09T10:55:20.854Z,45.30
2022-08-09T10:57:52.430Z,44.90
2022-08-09T11:00:41.897Z,44.80
2022-08-09T11:03:49.946Z,44.60
2022-08-09T11:06:25.382Z,45.40
2022-08-09T11:08:54.957Z,44.90
2022-08-09T11:12:11.992Z,43.90
2022-08-09T11:14:44.086Z,43.90
2022-08-09T11:17:53.760Z,42.70
2022-08-09T11:20:47.581Z,42.30
2022-08-09T11:23:23.970Z,42.80
2022-08-09T11:25:58.103Z,43.50
2022-08-09T11:28:38.657Z,43.20
2022-08-09T11:31:49.392Z,42.90
2022-08-09T11:34:25.862Z,43.00
2022-08-09T11:36:55.540Z,43.30
2022-08-09T11:39:25.129Z,43.20
2022-08-09T11:42:09.303Z,43.70
2022-08-09T11:44:49.362Z,44.40
2022-08-09T11:47:20.469Z,45.00
2022-08-09T11:50:53.578Z,44.90
2022-08-09T11:54:01.597Z,45.20
2022-08-09T11:56:42.785Z,45.00
2022-08-09T11:59:30.605Z,44.60
2022-08-09T12:02:18.009Z,43.90
2022-08-09T12:04:58.709Z,43.30
2022-08-09T12:07:41.413Z,43.60
2022-08-09T12:10:14.051Z,43.70
2022-08-09T12:12:47.235Z,44.40
2022-08-09T12:15:50.232Z,44.40
2022-08-09T12:18:29.625Z,44.20
2022-08-09T12:20:59.305Z,43.70
2022-08-09T12:23:56.325Z,43.90
2022-08-09T12:26:19.610Z,44.50
2022-08-09T12:33:58.629Z,42.90
2022-08-09T12:36:32.048Z,42.80
2022-08-09T12:39:02.337Z,43.50
2022-08-09T12:41:39.540Z,43.90
2022-08-09T12:44:10.146Z,43.10
2022-08-09T12:46:43.329Z,42.60
2022-08-09T12:49:18.553Z,42.50
2022-08-09T12:52:02.683Z,42.90
2022-08-09T12:56:14.816Z,43.60
2022-08-09T12:57:39.814Z,42.00
2022-08-09T13:00:17.723Z,41.50
2022-08-09T13:02:53.318Z,41.40
2022-08-09T13:05:26.104Z,40.60
2022-08-09T13:08:15.252Z,40.30
2022-08-09T13:10:52.146Z,41.20
2022-08-09T13:13:38.010Z,41.10
2022-08-09T13:16:20.265Z,41.30
2022-08-09T13:18:53.449Z,41.90
2022-08-09T13:22:38.317Z,42.60
2022-08-09T13:24:42.405Z,42.80
2022-08-09T13:27:05.948Z,43.10
2022-08-09T13:30:03.230Z,42.80
2022-08-09T13:32:28.730Z,42.40
2022-08-09T13:34:57.171Z,42.00
2022-08-09T13:37:51.211Z,41.00
2022-08-09T13:41:46.062Z,41.10
2022-08-09T13:43:05.004Z,41.30
2022-08-09T13:46:43.717Z,40.40
2022-08-09T13:48:29.935Z,40.50
2022-08-09T13:50:58.240Z,40.10
2022-08-09T13:53:43.181Z,41.00
2022-08-09T13:56:15.695Z,40.60
2022-08-09T13:58:46.386Z,40.40
2022-08-09T14:01:56.564Z,40.80
2022-08-09T14:04:11.236Z,40.40
2022-08-09T14:06:41.413Z,40.30
2022-08-09T14:09:15.928Z,40.40
2022-08-09T14:11:47.858Z,40.40
2022-08-09T14:14:25.587Z,40.20
2022-08-09T14:16:54.821Z,40.40
2022-08-09T14:19:22.909Z,40.70
2022-08-09T14:21:51.170Z,40.40
2022-08-09T14:24:22.394Z,40.20
2022-08-09T14:27:01.257Z,40.40
2022-08-09T14:30:34.774Z,40.40
2022-08-09T14:32:30.706Z,40.40
2022-08-09T14:34:59.691Z,40.70
2022-08-09T14:37:40.905Z,41.30
2022-08-09T14:40:19.716Z,41.10
2022-08-09T14:43:07.682Z,41.10
2022-08-09T14:46:58.753Z,41.10
2022-08-09T14:48:26.704Z,41.10
2022-08-09T14:50:55.078Z,41.00
2022-08-09T14:53:23.420Z,40.80
2022-08-09T14:55:53.052Z,41.30
2022-08-09T14:58:23.001Z,41.80
2022-08-09T15:00:52.405Z,41.60
2022-08-09T15:03:21.339Z,41.60
2022-08-09T15:05:53.728Z,41.70
2022-08-09T15:08:30.428Z,41.30
2022-08-09T15:11:07.105Z,41.10
2022-08-09T15:13:56.238Z,41.60
2022-08-09T15:16:23.950Z,41.30
2022-08-09T15:18:59.686Z,40.70
2022-08-09T15:21:56.063Z,40.90
2022-08-09T15:24:26.467Z,40.60
2022-08-09T15:26:57.750Z,40.50
2022-08-09T15:30:55.571Z,40.60
2022-08-09T15:32:29.874Z,40.40
2022-08-09T15:35:00.532Z,40.80
2022-08-09T15:37:56.321Z,41.50
2022-08-09T15:40:32.116Z,41.30
2022-08-09T15:43:03.066Z,41.20
2022-08-09T15:46:07.703Z,40.90
2022-08-09T15:48:29.456Z,41.10
2022-08-09T15:50:59.363Z,42.20
2022-08-09T15:54:05.069Z,42.40
2022-08-09T15:56:21.649Z,42.10
2022-08-09T15:58:59.347Z,41.50
2022-08-09T16:01:27.655Z,41.50
2022-08-09T16:03:59.767Z,40.90
2022-08-09T16:06:37.306Z,40.80
2022-08-09T16:09:06.952Z,40.80
2022-08-09T16:11:35.070Z,40.70
2022-08-09T16:14:07.995Z,40.60
2022-08-09T16:16:38.093Z,40.90
2022-08-09T16:19:07.761Z,41.60
2022-08-09T16:21:36.376Z,41.90
2022-08-09T16:24:05.080Z,42.00
2022-08-09T16:26:38.112Z,42.40
2022-08-09T16:29:12.417Z,42.70
2022-08-09T16:32:12.575Z,42.70
2022-08-09T16:34:56.013Z,42.20
2022-08-09T16:37:18.718Z,41.80
2022-08-09T16:40:02.635Z,41.70
2022-08-09T16:42:33.433Z,41.90
2022-08-09T16:45:02.894Z,42.30
2022-08-09T16:48:39.893Z,41.80
2022-08-09T16:50:30.529Z,41.80
2022-08-09T16:53:01.857Z,41.30
2022-08-09T16:55:44.174Z,41.70
2022-08-09T16:58:20.954Z,41.90
2022-08-09T17:00:51.356Z,42.00
2022-08-09T17:03:21.922Z,42.00
2022-08-09T17:06:07.817Z,42.30
2022-08-09T17:09:03.055Z,42.40
2022-08-09T17:11:40.907Z,42.30
2022-08-09T17:14:26.017Z,42.30
2022-08-09T17:17:01.029Z,42.60
2022-08-09T17:20:06.004Z,43.50
2022-08-09T17:22:24.738Z,44.00
2022-08-09T17:25:02.823Z,44.70
2022-08-09T17:27:32.232Z,45.30
2022-08-09T17:30:06.894Z,45.50
2022-08-09T17:32:44.416Z,46.00
2022-08-09T17:35:15.509Z,46.30
2022-08-09T17:38:02.116Z,46.60
2022-08-09T17:40:34.876Z,46.50
2022-08-09T17:43:32.503Z,46.60
2022-08-09T17:46:04.390Z,46.90
2022-08-09T17:48:39.146Z,47.00
2022-08-09T17:51:17.421Z,47.10
2022-08-09T17:53:52.662Z,47.20
2022-08-09T17:56:27.285Z,47.50
2022-08-09T17:58:58.741Z,47.60
2022-08-09T18:01:57.987Z,47.90
2022-08-09T18:04:18.051Z,47.90
2022-08-09T18:06:54.169Z,48.10
2022-08-09T18:09:25.248Z,48.20
2022-08-09T18:12:15.066Z,48.30
2022-08-09T18:14:49.726Z,48.30
2022-08-09T18:17:26.805Z,48.60
2022-08-09T18:20:55.246Z,48.70
2022-08-09T18:22:51.266Z,48.90
2022-08-09T18:25:52.682Z,49.00
2022-08-09T18:30:35.465Z,49.00
2022-08-09T18:31:04.862Z,49.50
2022-08-09T18:33:34.297Z,49.40
2022-08-09T18:36:02.650Z,49.60
2022-08-09T18:38:31.354Z,49.80
2022-08-09T18:41:00.969Z,49.90
2022-08-09T18:43:29.009Z,49.80
2022-08-09T18:46:47.571Z,50.00
2022-08-09T18:48:53.307Z,50.20
2022-08-09T18:51:38.581Z,50.50
2022-08-09T18:54:15.017Z,50.90
2022-08-09T18:56:53.867Z,51.10
2022-08-09T18:59:23.357Z,51.40
2022-08-09T19:01:55.012Z,51.40
2022-08-09T19:04:34.639Z,51.50
2022-08-09T19:07:05.363Z,51.70
2022-08-09T19:10:13.365Z,51.70
2022-08-09T19:12:23.352Z,51.90
2022-08-09T19:14:52.124Z,52.00
2022-08-09T19:17:22.212Z,52.60
2022-08-09T19:19:50.267Z,52.50
2022-08-09T19:22:29.139Z,52.80
2022-08-09T19:25:10.024Z,53.00
2022-08-09T19:27:46.512Z,53.20
2022-08-09T19:30:25.060Z,53.70
2022-08-09T19:32:56.991Z,53.60
2022-08-09T19:35:27.341Z,53.80
2022-08-09T19:37:57.731Z,54.10
2022-08-09T19:40:33.425Z,54.50
2022-08-09T19:43:05.328Z,54.70
2022-08-09T19:45:40.214Z,54.60
2022-08-09T19:48:11.013Z,55.00
2022-08-09T19:50:49.194Z,54.90
2022-08-09T19:53:26.499Z,55.10
2022-08-09T19:56:03.137Z,55.50
2022-08-09T19:58:36.402Z,55.80
2022-08-09T20:01:04.884Z,55.70
2022-08-09T20:04:16.821Z,56.00
2022-08-09T20:06:29.865Z,56.00
2022-08-09T20:09:00.084Z,56.20
2022-08-09T20:11:33.863Z,56.20
2022-08-09T20:14:15.183Z,56.50
2022-08-09T20:16:54.493Z,56.70
2022-08-09T20:19:47.669Z,57.00
2022-08-09T20:22:14.422Z,57.10
2022-08-09T20:24:53.907Z,57.20
2022-08-09T20:27:23.027Z,57.50
2022-08-09T20:29:52.453Z,57.50
2022-08-09T20:32:33.002Z,57.40
2022-08-09T20:35:02.395Z,57.50
2022-08-09T20:37:37.834Z,57.90
2022-08-09T20:40:27.594Z,58.10
2022-08-09T20:43:12.332Z,58.30
2022-08-09T20:45:59.669Z,58.70
2022-08-09T20:48:31.792Z,58.60
2022-08-09T20:51:00.831Z,59.00
2022-08-09T20:53:37.408Z,59.40
2022-08-09T20:56:09.405Z,59.60
2022-08-09T20:58:49.032Z,59.80
2022-08-09T21:01:35.287Z,60.20
2022-08-09T21:05:49.336Z,60.30
2022-08-09T21:06:55.206Z,60.50
2022-08-09T21:09:32.618Z,60.20
2022-08-09T21:14:42.258Z,60.30
2022-08-09T21:18:11.074Z,60.70
2022-08-09T21:20:22.757Z,60.60
2022-08-09T21:22:54.165Z,60.50
2022-08-09T21:25:44.411Z,61.20
2022-08-09T21:28:33.658Z,61.60
2022-08-09T21:31:17.109Z,62.10
2022-08-09T21:33:51.257Z,62.80
2022-08-09T21:36:23.204Z,63.00
2022-08-09T21:38:57.912Z,63.10
2022-08-09T21:42:04.555Z,63.50
2022-08-09T21:44:34.272Z,63.70
2022-08-09T21:47:07.775Z,63.70
2022-08-09T21:49:42.702Z,64.10
2022-08-09T21:52:16.620Z,64.60
2022-08-09T21:54:51.110Z,65.00
2022-08-09T21:57:38.495Z,65.30
2022-08-09T22:00:17.969Z,65.80
2022-08-09T22:02:59.266Z,65.60
2022-08-09T22:05:35.843Z,65.30
2022-08-09T22:08:13.674Z,65.00
2022-08-09T22:11:00.956Z,65.40
2022-08-09T22:13:34.564Z,65.50
2022-08-09T22:16:03.939Z,65.50
2022-08-09T22:18:33.062Z,65.70
2022-08-09T22:21:02.651Z,66.00
2022-08-09T22:23:59.161Z,65.90
2022-08-09T22:26:35.464Z,65.70
2022-08-09T22:29:09.159Z,65.40
2022-08-09T22:31:50.493Z,65.70
2022-08-09T22:34:26.237Z,65.40
2022-08-09T22:36:56.743Z,65.80
2022-08-09T22:39:55.757Z,66.40
2022-08-09T22:42:20.869Z,66.10
2022-08-09T22:45:11.520Z,66.40
2022-08-09T22:48:14.950Z,66.40
2022-08-09T22:50:27.968Z,66.70
2022-08-09T22:52:58.344Z,67.00
2022-08-09T22:55:39.767Z,67.60
2022-08-09T22:58:20.417Z,66.90
2022-08-09T23:01:00.787Z,66.80
2022-08-09T23:04:02.714Z,67.00
2022-08-09T23:06:32.541Z,67.30
2022-08-09T23:09:06.095Z,67.20
2022-08-09T23:11:34.343Z,66.90
2022-08-09T23:14:03.328Z,66.80
2022-08-09T23:16:32.379Z,67.20
2022-08-09T23:19:00.492Z,67.20
2022-08-09T23:21:33.619Z,67.10
2022-08-09T23:24:06.197Z,67.30
2022-08-09T23:26:37.336Z,66.80
2022-08-09T23:29:06.117Z,66.80
2022-08-09T23:31:34.632Z,66.50
2022-08-09T23:34:03.794Z,66.10
2022-08-09T23:36:32.460Z,66.20
2022-08-09T23:39:00.810Z,66.50
2022-08-09T23:41:29.849Z,66.70
2022-08-09T23:44:01.040Z,67.00
2022-08-09T23:46:29.955Z,67.30
2022-08-09T23:48:58.153Z,67.60
2022-08-09T23:51:26.558Z,67.90
2022-08-09T23:54:02.645Z,67.90
2022-08-09T23:56:53.082Z,68.20
2022-08-09T23:59:20.719Z,68.50
